Time;durP1;ratioP1;P1;durP2;ratioP2;P2;SDS_P1;SDS_P2;PMS_P1;PMS_P2;Temp;Humidity;BMP_temperature;BMP_pressure;BME280_temperature;BME280_humidity;BME280_pressure;Samples;Min_cycle;Max_cycle;Signal;HPM_P1;HPM_P2
2021/09/22 00:02:02;;;;;;;3.87;2.80;;;13.40;99.90;;;;;;5095118;28;20295;-61
2021/09/22 00:04:30;;;;;;;4.23;3.10;;;13.40;99.90;;;;;;5094913;28;20751;-62
2021/09/22 00:06:59;;;;;;;3.90;2.67;;;13.40;99.90;;;;;;5094962;28;20206;-61
2021/09/22 00:09:27;;;;;;;4.35;3.08;;;13.40;99.90;;;;;;5094914;28;20181;-61
2021/09/22 00:11:55;;;;;;;4.27;3.37;;;13.40;99.90;;;;;;5095188;28;20200;-61
2021/09/22 00:14:23;;;;;;;3.67;3.20;;;13.40;99.90;;;;;;5095139;28;20299;-61
2021/09/22 00:16:50;;;;;;;3.75;3.35;;;13.40;99.90;;;;;;5095036;28;20199;-61
2021/09/22 00:19:18;;;;;;;5.03;3.40;;;13.30;99.90;;;;;;5094726;28;20212;-62
2021/09/22 00:21:46;;;;;;;3.38;2.92;;;13.30;99.90;;;;;;5094946;28;20290;-62
2021/09/22 00:24:15;;;;;;;3.97;3.30;;;13.30;99.90;;;;;;5094999;28;20203;-62
2021/09/22 00:26:43;;;;;;;4.55;3.50;;;13.30;99.90;;;;;;5094888;28;20222;-62
2021/09/22 00:29:11;;;;;;;5.27;3.30;;;13.20;99.90;;;;;;5094764;28;20230;-62
2021/09/22 00:31:39;;;;;;;5.15;3.70;;;13.20;99.90;;;;;;5094582;28;20200;-61
2021/09/22 00:34:07;;;;;;;4.57;3.90;;;13.20;99.90;;;;;;5094551;28;20200;-61
2021/09/22 00:36:35;;;;;;;5.28;3.97;;;13.20;99.90;;;;;;5094261;28;20200;-62
2021/09/22 00:39:03;;;;;;;4.17;3.77;;;13.10;99.90;;;;;;5094581;28;20226;-61
2021/09/22 00:41:33;;;;;;;4.30;3.50;;;13.10;99.90;;;;;;5094743;28;20203;-61
2021/09/22 00:44:01;;;;;;;4.10;3.70;;;13.00;99.90;;;;;;5094586;28;20206;-61
2021/09/22 00:46:29;;;;;;;4.40;3.67;;;12.90;99.90;;;;;;5094549;28;20207;-62
2021/09/22 00:48:57;;;;;;;5.03;3.97;;;12.90;99.90;;;;;;5094265;28;20196;-64
2021/09/22 00:51:24;;;;;;;5.00;4.20;;;12.90;99.90;;;;;;5094430;28;20210;-62
2021/09/22 00:53:52;;;;;;;4.87;4.10;;;12.90;99.90;;;;;;5094311;28;20236;-62
2021/09/22 00:56:22;;;;;;;5.83;4.13;;;12.90;99.90;;;;;;5094372;28;20302;-62
2021/09/22 00:58:51;;;;;;;4.90;4.10;;;12.90;99.90;;;;;;5094335;28;20292;-61
2021/09/22 01:01:19;;;;;;;5.40;3.70;;;12.90;99.90;;;;;;5094024;28;20738;-62
2021/09/22 01:03:47;;;;;;;5.60;3.93;;;13.00;99.90;;;;;;5094158;28;20228;-61
2021/09/22 01:06:16;;;;;;;4.27;3.67;;;13.00;99.90;;;;;;5093934;28;20323;-61
2021/09/22 01:08:44;;;;;;;5.87;4.33;;;13.00;99.90;;;;;;5093923;28;20610;-61
2021/09/22 01:11:12;;;;;;;5.50;4.07;;;13.00;99.90;;;;;;5094230;28;20200;-61
2021/09/22 01:13:40;;;;;;;4.73;3.93;;;12.90;99.90;;;;;;5094324;28;20200;-60
2021/09/22 01:16:09;;;;;;;7.80;4.57;;;12.80;99.90;;;;;;5093525;28;20794;-61
2021/09/22 01:18:37;;;;;;;6.00;4.43;;;12.70;99.90;;;;;;5093990;28;20208;-62
2021/09/22 01:21:05;;;;;;;5.57;4.47;;;12.60;99.90;;;;;;5093290;28;20986;-61
2021/09/22 01:23:34;;;;;;;6.47;4.90;;;12.50;99.90;;;;;;5093951;28;20216;-61
2021/09/22 01:26:02;;;;;;;7.17;4.47;;;12.60;99.90;;;;;;5093769;28;20204;-61
2021/09/22 01:28:30;;;;;;;7.97;4.70;;;12.60;99.90;;;;;;5093734;28;20621;-61
2021/09/22 01:31:00;;;;;;;7.07;4.80;;;12.60;99.90;;;;;;5093323;28;20290;-62
2021/09/22 01:33:28;;;;;;;6.97;4.73;;;12.60;99.90;;;;;;5093759;28;20299;-61
2021/09/22 01:35:56;;;;;;;6.00;4.97;;;12.60;99.90;;;;;;5093556;28;20200;-61
2021/09/22 01:38:26;;;;;;;8.13;5.13;;;12.60;99.90;;;;;;5093594;28;20204;-61
2021/09/22 01:40:59;;;;;;;8.63;4.83;;;12.60;99.90;;;;;;5093632;28;20208;-62
2021/09/22 01:43:28;;;;;;;8.77;5.30;;;12.60;99.90;;;;;;5093259;28;20557;-61
2021/09/22 01:45:57;;;;;;;8.60;4.93;;;12.60;99.90;;;;;;5093237;28;20286;-61
2021/09/22 01:48:26;;;;;;;8.13;4.80;;;12.50;99.90;;;;;;5092574;28;20204;-61
2021/09/22 01:50:54;;;;;;;7.07;5.17;;;12.50;99.90;;;;;;5093230;28;20199;-60
2021/09/22 01:53:23;;;;;;;8.10;5.10;;;12.50;99.90;;;;;;5093319;28;20324;-61
2021/09/22 01:55:52;;;;;;;7.07;5.10;;;12.40;99.90;;;;;;5093371;28;20199;-61
2021/09/22 01:58:22;;;;;;;8.03;4.83;;;12.40;99.90;;;;;;5093243;28;20345;-61
2021/09/22 02:00:50;;;;;;;9.50;5.27;;;12.30;99.90;;;;;;5092893;28;20223;-61
2021/09/22 02:03:19;;;;;;;6.53;4.43;;;12.20;99.90;;;;;;5092768;28;20249;-61
2021/09/22 02:05:47;;;;;;;7.07;5.20;;;12.20;99.90;;;;;;5092477;28;20295;-62
2021/09/22 02:08:15;;;;;;;8.60;5.37;;;12.10;99.90;;;;;;5092740;28;20232;-61
2021/09/22 02:10:43;;;;;;;11.63;5.57;;;12.10;99.90;;;;;;5092808;28;20220;-61
2021/09/22 02:13:12;;;;;;;10.50;5.50;;;12.00;99.90;;;;;;5092865;28;20206;-62
2021/09/22 02:15:41;;;;;;;7.40;5.27;;;12.00;99.90;;;;;;5093063;28;20200;-60
2021/09/22 02:18:09;;;;;;;8.57;5.30;;;12.00;99.90;;;;;;5092778;28;20287;-62
2021/09/22 02:20:37;;;;;;;11.13;5.67;;;11.90;99.90;;;;;;5092398;28;20315;-61
2021/09/22 02:23:06;;;;;;;8.17;4.80;;;11.90;99.90;;;;;;5092745;28;20208;-61
2021/09/22 02:25:34;;;;;;;10.67;5.20;;;11.90;99.90;;;;;;5092587;28;20306;-62
2021/09/22 02:28:02;;;;;;;11.30;5.60;;;11.90;99.90;;;;;;5092555;28;20200;-61
2021/09/22 02:30:29;;;;;;;12.67;5.83;;;11.90;99.90;;;;;;5092541;28;20253;-61
2021/09/22 02:32:58;;;;;;;13.10;5.90;;;11.90;99.90;;;;;;5092260;28;20214;-61
2021/09/22 02:35:26;;;;;;;7.60;5.57;;;11.90;99.90;;;;;;5092401;28;20282;-61
2021/09/22 02:37:54;;;;;;;11.70;5.50;;;11.90;99.90;;;;;;5092371;28;20195;-61
2021/09/22 02:40:22;;;;;;;10.83;5.20;;;11.80;99.90;;;;;;5092429;28;20219;-61
2021/09/22 02:42:50;;;;;;;9.27;5.50;;;11.80;99.90;;;;;;5091996;28;20200;-62
2021/09/22 02:45:18;;;;;;;9.87;5.47;;;11.80;99.90;;;;;;5092435;28;20242;-61
2021/09/22 02:47:45;;;;;;;14.47;5.40;;;11.70;99.90;;;;;;5092124;28;20208;-61
2021/09/22 02:50:18;;;;;;;10.27;6.37;;;11.60;99.90;;;;;;5092130;28;20369;-60
2021/09/22 02:52:47;;;;;;;9.97;5.70;;;11.60;99.90;;;;;;5092255;28;20180;-62
2021/09/22 02:55:16;;;;;;;9.47;5.33;;;11.60;99.90;;;;;;5092022;28;20291;-62
2021/09/22 02:57:44;;;;;;;11.13;5.57;;;11.60;99.90;;;;;;5091654;28;20554;-61
2021/09/22 03:00:13;;;;;;;10.00;5.50;;;11.50;99.90;;;;;;5091574;28;20224;-61
2021/09/22 03:02:41;;;;;;;10.67;5.80;;;11.60;99.90;;;;;;5091527;28;20577;-61
2021/09/22 03:05:10;;;;;;;11.60;5.60;;;11.60;99.90;;;;;;5091591;28;20200;-62
2021/09/22 03:07:39;;;;;;;10.87;5.77;;;11.50;99.90;;;;;;5091738;28;20314;-61
2021/09/22 03:10:08;;;;;;;10.57;5.53;;;11.50;99.90;;;;;;5092036;28;20294;-62
2021/09/22 03:12:36;;;;;;;13.27;6.03;;;11.50;99.90;;;;;;5091901;28;20295;-62
2021/09/22 03:15:05;;;;;;;11.13;6.03;;;11.50;99.90;;;;;;5091971;28;20196;-61
2021/09/22 03:17:33;;;;;;;9.27;5.87;;;11.60;99.90;;;;;;5091759;28;20574;-61
2021/09/22 03:20:00;;;;;;;10.87;6.50;;;11.60;99.90;;;;;;5091679;28;20200;-63
2021/09/22 03:22:29;;;;;;;12.97;8.27;;;11.70;99.90;;;;;;5091537;28;20273;-61
2021/09/22 03:24:58;;;;;;;14.70;6.83;;;11.80;99.90;;;;;;5091546;28;20208;-62
2021/09/22 03:27:26;;;;;;;11.03;7.73;;;11.80;99.90;;;;;;5092017;28;20204;-61
2021/09/22 03:29:54;;;;;;;10.47;6.33;;;11.80;99.90;;;;;;5091758;28;20200;-61
2021/09/22 03:32:21;;;;;;;9.93;6.20;;;11.90;99.90;;;;;;5091403;28;20747;-61
2021/09/22 03:34:49;;;;;;;9.27;5.67;;;11.90;99.90;;;;;;5091581;28;20203;-62
2021/09/22 03:37:17;;;;;;;9.23;6.17;;;11.90;99.90;;;;;;5091648;28;20202;-60
2021/09/22 03:39:45;;;;;;;10.07;6.50;;;12.00;99.90;;;;;;5091550;28;20258;-62
2021/09/22 03:42:15;;;;;;;7.93;5.73;;;12.00;99.90;;;;;;5091516;28;20220;-62
2021/09/22 03:44:43;;;;;;;9.80;6.13;;;12.00;99.90;;;;;;5091425;28;20682;-61
2021/09/22 03:47:10;;;;;;;12.13;6.17;;;12.00;99.90;;;;;;5091459;28;20405;-61
2021/09/22 03:49:38;;;;;;;9.70;5.73;;;12.10;99.90;;;;;;5091358;28;20690;-61
2021/09/22 03:52:07;;;;;;;10.00;5.33;;;12.10;99.90;;;;;;5091395;28;20275;-61
2021/09/22 03:54:34;;;;;;;8.17;5.70;;;12.10;99.90;;;;;;5091558;28;20685;-61
2021/09/22 03:57:02;;;;;;;10.23;5.20;;;12.10;99.90;;;;;;5091237;28;20706;-61
2021/09/22 03:59:31;;;;;;;10.10;5.43;;;12.10;99.90;;;;;;5091188;28;20695;-61
2021/09/22 04:01:59;;;;;;;10.57;5.33;;;12.10;99.90;;;;;;5090898;28;20227;-62
2021/09/22 04:04:27;;;;;;;9.63;5.53;;;12.20;99.90;;;;;;5091364;28;20200;-61
2021/09/22 04:06:58;;;;;;;11.90;5.87;;;12.20;99.90;;;;;;5091009;28;20561;-61
2021/09/22 04:09:26;;;;;;;10.83;5.77;;;12.20;99.90;;;;;;5091336;28;20207;-62
2021/09/22 04:11:54;;;;;;;8.23;6.13;;;12.20;99.90;;;;;;5093129;28;20294;-61
2021/09/22 04:14:22;;;;;;;11.13;6.03;;;12.20;99.90;;;;;;5095263;28;20204;-62
2021/09/22 04:16:51;;;;;;;8.80;5.10;;;12.20;99.90;;;;;;5094737;28;20196;-61
2021/09/22 04:19:19;;;;;;;11.13;5.33;;;12.20;99.90;;;;;;5094943;28;20235;-61
2021/09/22 04:21:48;;;;;;;9.63;5.83;;;12.30;99.90;;;;;;5094291;28;20274;-61
2021/09/22 04:24:15;;;;;;;11.13;5.90;;;12.40;99.90;;;;;;5094546;28;20204;-62
2021/09/22 04:26:43;;;;;;;10.40;5.93;;;12.40;99.90;;;;;;5094323;28;20207;-62
2021/09/22 04:29:12;;;;;;;8.57;5.93;;;12.40;99.90;;;;;;5094518;28;20282;-62
2021/09/22 04:31:40;;;;;;;10.57;6.43;;;12.40;99.90;;;;;;5094414;28;20228;-62
2021/09/22 04:34:12;;;;;;;12.33;6.50;;;12.30;99.90;;;;;;5095241;28;20192;-61
2021/09/22 04:36:40;;;;;;;11.70;6.57;;;12.20;99.90;;;;;;5095007;28;20200;-61
2021/09/22 04:39:09;;;;;;;10.57;6.37;;;12.20;99.90;;;;;;5095055;28;20203;-62
2021/09/22 04:41:37;;;;;;;10.80;6.17;;;12.10;99.90;;;;;;5095114;28;20247;-65
2021/09/22 04:44:05;;;;;;;10.57;6.23;;;12.00;99.90;;;;;;5094964;28;20246;-61
2021/09/22 04:46:33;;;;;;;10.73;6.13;;;11.90;99.90;;;;;;5094441;28;20621;-62
2021/09/22 04:49:01;;;;;;;8.80;6.20;;;11.80;99.90;;;;;;5094705;28;20645;-63
2021/09/22 04:51:30;;;;;;;10.67;6.47;;;11.80;99.90;;;;;;5094756;28;20290;-63
2021/09/22 04:53:58;;;;;;;9.93;6.90;;;11.70;99.90;;;;;;5094707;28;20200;-62
2021/09/22 04:56:26;;;;;;;13.00;7.67;;;11.70;99.90;;;;;;5094608;28;20590;-63
2021/09/22 04:58:53;;;;;;;12.13;6.80;;;11.70;99.90;;;;;;5094695;28;20195;-62
2021/09/22 05:01:21;;;;;;;11.63;7.20;;;11.70;99.90;;;;;;5094622;28;20311;-62
2021/09/22 05:03:49;;;;;;;11.70;6.63;;;11.80;99.90;;;;;;5094642;28;20215;-62
2021/09/22 05:06:18;;;;;;;10.57;6.80;;;11.90;99.90;;;;;;5094180;28;20660;-64
2021/09/22 05:08:47;;;;;;;13.50;7.50;;;11.90;99.90;;;;;;5094207;28;20318;-62
2021/09/22 05:11:15;;;;;;;10.27;6.80;;;12.00;99.90;;;;;;5094309;28;20668;-62
2021/09/22 05:13:43;;;;;;;11.37;6.57;;;12.00;99.90;;;;;;5094614;28;20196;-61
2021/09/22 05:16:10;;;;;;;13.50;6.83;;;12.10;99.90;;;;;;5094336;28;20282;-62
2021/09/22 05:18:38;;;;;;;13.97;6.73;;;12.10;99.90;;;;;;5094046;28;20714;-61
2021/09/22 05:21:06;;;;;;;12.73;6.97;;;12.20;99.90;;;;;;5093908;28;20211;-61
2021/09/22 05:23:34;;;;;;;9.43;6.80;;;12.30;99.90;;;;;;5092936;28;20204;-64
2021/09/22 05:26:03;;;;;;;15.93;7.37;;;12.30;99.90;;;;;;5093755;28;20204;-61
2021/09/22 05:28:31;;;;;;;11.27;6.97;;;12.30;99.90;;;;;;5093899;28;20570;-62
2021/09/22 05:30:59;;;;;;;11.73;6.85;;;12.40;99.90;;;;;;5093899;28;20200;-62
2021/09/22 05:33:26;;;;;;;11.17;6.87;;;12.40;99.90;;;;;;5094053;28;20227;-62
2021/09/22 05:35:54;;;;;;;14.00;7.27;;;12.40;99.90;;;;;;5093794;28;20207;-62
2021/09/22 05:38:22;;;;;;;13.47;7.37;;;12.40;99.90;;;;;;5093899;28;20306;-62
2021/09/22 05:40:50;;;;;;;11.23;6.70;;;12.40;99.90;;;;;;5093842;28;20200;-61
2021/09/22 05:43:19;;;;;;;14.20;6.87;;;12.40;99.90;;;;;;5093822;28;20599;-61
2021/09/22 05:45:47;;;;;;;15.45;7.70;;;12.50;99.90;;;;;;5093655;28;20218;-62
2021/09/22 05:48:14;;;;;;;10.98;6.90;;;12.50;99.90;;;;;;5093596;28;20207;-63
2021/09/22 05:50:42;;;;;;;13.23;6.97;;;12.50;99.90;;;;;;5093564;28;20204;-62
2021/09/22 05:53:10;;;;;;;12.68;6.93;;;12.50;99.90;;;;;;5093561;28;20200;-61
2021/09/22 05:55:38;;;;;;;13.77;6.63;;;12.60;99.90;;;;;;5093527;28;20219;-61
2021/09/22 05:58:05;;;;;;;14.50;6.90;;;12.60;99.90;;;;;;5093308;28;20203;-62
2021/09/22 06:00:35;;;;;;;12.37;5.87;;;12.60;99.90;;;;;;5093550;28;20200;-61
2021/09/22 06:03:07;;;;;;;13.65;6.75;;;12.60;99.90;;;;;;5093315;28;20216;-62
2021/09/22 06:05:36;;;;;;;12.63;7.03;;;12.70;99.90;;;;;;5093336;28;20207;-62
2021/09/22 06:08:04;;;;;;;21.73;6.77;;;12.70;99.90;;;;;;5093205;28;20232;-61
2021/09/22 06:10:32;;;;;;;12.30;6.53;;;12.80;99.90;;;;;;5093301;28;20207;-62
2021/09/22 06:13:00;;;;;;;12.63;6.17;;;12.80;99.90;;;;;;5093157;28;20204;-62
2021/09/22 06:15:29;;;;;;;15.10;6.50;;;12.80;99.90;;;;;;5093158;28;20207;-61
2021/09/22 06:17:58;;;;;;;11.70;5.90;;;12.80;99.90;;;;;;5092689;28;20755;-61
2021/09/22 06:20:26;;;;;;;14.10;6.60;;;12.90;99.90;;;;;;5093187;28;20206;-61
2021/09/22 06:22:54;;;;;;;11.13;5.80;;;12.90;99.90;;;;;;5093259;28;20641;-62
2021/09/22 06:25:22;;;;;;;10.50;6.18;;;13.00;99.90;;;;;;5092979;28;20203;-62
2021/09/22 06:27:51;;;;;;;15.13;6.00;;;13.00;99.90;;;;;;5092951;28;20196;-62
2021/09/22 06:30:19;;;;;;;13.93;6.40;;;13.10;99.90;;;;;;5092909;28;20651;-62
2021/09/22 06:32:47;;;;;;;15.33;6.10;;;13.10;99.90;;;;;;5092875;28;20203;-62
2021/09/22 06:35:17;;;;;;;12.53;6.20;;;13.20;99.90;;;;;;5092549;28;20202;-62
2021/09/22 06:37:48;;;;;;;11.97;6.10;;;13.10;99.90;;;;;;5092911;28;20199;-62
2021/09/22 06:40:18;;;;;;;16.15;7.22;;;13.10;99.90;;;;;;5092880;28;20188;-61
2021/09/22 06:42:46;;;;;;;12.65;6.15;;;13.20;99.90;;;;;;5093080;28;20219;-62
2021/09/22 06:45:15;;;;;;;14.75;5.85;;;13.30;99.90;;;;;;5092856;28;20210;-62
2021/09/22 06:47:44;;;;;;;13.23;6.43;;;13.30;99.90;;;;;;5092571;28;20268;-63
2021/09/22 06:50:12;;;;;;;11.60;5.45;;;13.50;99.90;;;;;;5092447;28;20291;-61
2021/09/22 06:52:41;;;;;;;10.35;5.45;;;13.50;99.90;;;;;;5092808;28;20210;-62
2021/09/22 06:55:10;;;;;;;13.10;5.55;;;13.70;99.90;;;;;;5092668;28;20228;-62
2021/09/22 06:57:38;;;;;;;13.68;5.15;;;13.80;99.90;;;;;;5092858;28;20590;-61
2021/09/22 07:00:11;;;;;;;10.88;5.47;;;13.80;99.90;;;;;;5092799;28;20219;-61
2021/09/22 07:02:39;;;;;;;12.13;5.75;;;14.00;99.90;;;;;;5092147;28;20234;-62
2021/09/22 07:05:08;;;;;;;12.32;6.43;;;14.10;99.90;;;;;;5092560;28;20204;-62
2021/09/22 07:07:36;;;;;;;14.75;5.63;;;14.10;99.90;;;;;;5092476;28;20227;-60
2021/09/22 07:10:07;;;;;;;12.10;5.38;;;14.30;99.90;;;;;;5092292;28;20211;-62
2021/09/22 07:12:35;;;;;;;15.07;6.30;;;14.30;99.90;;;;;;5092739;28;20176;-62
2021/09/22 07:15:03;;;;;;;17.40;6.20;;;14.30;99.90;;;;;;5092648;28;20216;-62
2021/09/22 07:17:30;;;;;;;16.13;5.85;;;14.30;99.90;;;;;;5092445;28;20207;-63
2021/09/22 07:19:58;;;;;;;18.20;6.10;;;14.40;99.90;;;;;;5092640;28;20207;-61
2021/09/22 07:22:27;;;;;;;13.45;4.78;;;14.50;99.90;;;;;;5092260;28;20206;-61
2021/09/22 07:24:55;;;;;;;14.30;5.93;;;14.50;99.90;;;;;;5092336;28;20339;-62
2021/09/22 07:27:24;;;;;;;10.70;5.28;;;14.60;99.90;;;;;;5092473;28;20200;-63
2021/09/22 07:29:53;;;;;;;13.10;5.07;;;14.70;99.90;;;;;;5092116;28;20200;-62
2021/09/22 07:32:21;;;;;;;11.15;5.18;;;14.70;99.90;;;;;;5091807;28;20667;-61
2021/09/22 07:34:50;;;;;;;13.80;5.13;;;14.70;99.90;;;;;;5092363;28;20204;-61
2021/09/22 07:37:19;;;;;;;12.15;5.45;;;14.80;99.90;;;;;;5092265;28;20208;-61
2021/09/22 07:39:47;;;;;;;15.68;5.85;;;14.80;99.90;;;;;;5092287;28;20222;-62
2021/09/22 07:42:15;;;;;;;14.80;5.43;;;14.70;99.90;;;;;;5092424;28;20253;-62
2021/09/22 07:44:49;;;;;;;12.18;4.95;;;14.70;99.90;;;;;;5092320;28;20269;-61
2021/09/22 07:47:17;;;;;;;13.00;5.70;;;14.80;99.90;;;;;;5094958;28;20271;-62
2021/09/22 07:49:45;;;;;;;13.55;5.63;;;14.80;99.90;;;;;;5096151;28;20196;-62
2021/09/22 07:52:14;;;;;;;11.80;5.40;;;14.70;99.90;;;;;;5096059;28;20200;-62
2021/09/22 07:54:43;;;;;;;17.02;5.18;;;14.80;99.90;;;;;;5096026;28;20305;-62
2021/09/22 07:57:11;;;;;;;9.82;4.82;;;15.00;99.90;;;;;;5095834;28;20211;-62
2021/09/22 07:59:39;;;;;;;17.10;5.45;;;15.10;99.90;;;;;;5095730;28;20607;-61
2021/09/22 08:02:08;;;;;;;14.13;5.20;;;15.10;99.90;;;;;;5095431;28;20216;-60
2021/09/22 08:04:37;;;;;;;15.18;5.70;;;15.20;99.90;;;;;;5095795;28;20331;-62
2021/09/22 08:07:04;;;;;;;12.40;5.18;;;15.30;99.90;;;;;;5095010;28;20658;-62
2021/09/22 08:09:33;;;;;;;13.07;4.68;;;15.40;99.90;;;;;;5095486;28;20184;-61
2021/09/22 08:12:00;;;;;;;13.70;4.97;;;15.50;99.90;;;;;;5095589;28;20204;-63
2021/09/22 08:14:36;;;;;;;13.23;4.68;;;15.50;99.90;;;;;;5095732;28;20176;-60
2021/09/22 08:17:04;;;;;;;11.07;4.65;;;15.50;99.90;;;;;;5095219;28;20196;-61
2021/09/22 08:19:35;;;;;;;19.15;5.22;;;15.50;99.90;;;;;;5095554;28;20250;-62
2021/09/22 08:22:04;;;;;;;15.85;4.95;;;15.40;99.90;;;;;;5095179;28;20188;-62
2021/09/22 08:24:32;;;;;;;15.20;5.18;;;15.60;99.90;;;;;;5095454;28;20258;-61
2021/09/22 08:27:00;;;;;;;13.48;4.45;;;15.50;99.90;;;;;;5095151;28;20204;-63
2021/09/22 08:29:28;;;;;;;16.25;5.03;;;15.60;99.90;;;;;;5095352;28;20218;-61
2021/09/22 08:31:56;;;;;;;14.38;4.28;;;15.50;99.90;;;;;;5095260;28;20208;-63
2021/09/22 08:34:24;;;;;;;13.40;5.20;;;15.60;99.90;;;;;;5095570;28;20226;-64
2021/09/22 08:36:53;;;;;;;14.45;4.47;;;15.50;99.90;;;;;;5094520;28;20548;-61
2021/09/22 08:39:21;;;;;;;16.85;4.32;;;15.50;99.90;;;;;;5095124;28;20200;-61
2021/09/22 08:41:51;;;;;;;15.98;4.07;;;15.50;99.90;;;;;;5093962;28;20204;-61
2021/09/22 08:44:19;;;;;;;14.95;3.97;;;15.60;99.90;;;;;;5094836;28;20223;-61
2021/09/22 08:46:47;;;;;;;13.07;4.10;;;15.80;99.90;;;;;;5094721;28;20699;-61
2021/09/22 08:49:16;;;;;;;16.27;4.20;;;15.90;99.90;;;;;;5095013;28;20204;-61
2021/09/22 08:51:45;;;;;;;13.02;4.38;;;16.00;99.90;;;;;;5094915;28;20283;-61
2021/09/22 08:54:15;;;;;;;13.57;4.20;;;16.10;99.90;;;;;;5094971;28;20231;-61
2021/09/22 08:56:44;;;;;;;10.00;3.22;;;16.20;99.90;;;;;;5094758;28;20206;-61
2021/09/22 08:59:14;;;;;;;12.07;3.58;;;16.30;99.90;;;;;;5094741;28;20210;-61
2021/09/22 09:01:43;;;;;;;14.35;4.03;;;16.40;99.90;;;;;;5092885;28;20203;-61
2021/09/22 09:04:16;;;;;;;15.07;3.90;;;16.20;99.90;;;;;;5094564;28;20224;-61
2021/09/22 09:06:45;;;;;;;12.32;3.50;;;16.20;99.90;;;;;;5094561;28;20283;-61
2021/09/22 09:09:14;;;;;;;10.38;3.28;;;16.20;99.90;;;;;;5094377;28;20323;-61
2021/09/22 09:11:43;;;;;;;13.68;3.75;;;16.40;99.90;;;;;;5094507;28;20206;-62
2021/09/22 09:14:15;;;;;;;10.10;3.00;;;16.50;99.90;;;;;;5094478;28;20693;-61
2021/09/22 09:16:45;;;;;;;10.43;3.17;;;16.50;99.90;;;;;;5094325;28;20249;-61
2021/09/22 09:19:16;;;;;;;7.95;2.88;;;16.60;99.90;;;;;;5094360;28;20198;-61
2021/09/22 09:21:54;;;;;;;11.07;3.17;;;16.60;99.90;;;;;;5094612;28;20184;-61
2021/09/22 09:24:32;;;;;;;10.70;2.55;;;16.80;99.90;;;;;;5094242;28;20223;-62
2021/09/22 09:27:00;;;;;;;9.38;3.42;;;16.80;99.90;;;;;;5094247;28;20254;-61
2021/09/22 09:29:28;;;;;;;14.23;3.63;;;16.90;99.90;;;;;;5094483;28;20223;-62
2021/09/22 09:32:16;;;;;;;9.68;2.85;;;17.00;99.90;;;;;;5094162;28;20216;-62
2021/09/22 09:35:00;;;;;;;11.02;3.05;;;17.10;99.90;;;;;;5094256;28;20193;-60
2021/09/22 09:37:33;;;;;;;10.25;2.67;;;17.30;99.90;;;;;;5094262;28;20275;-62
2021/09/22 09:40:27;;;;;;;10.27;3.20;;;17.40;99.90;;;;;;5093918;28;20184;-61
2021/09/22 09:43:00;;;;;;;11.90;3.38;;;17.50;99.90;;;;;;5093793;28;20185;-61
2021/09/22 09:45:34;;;;;;;10.00;2.88;;;17.30;99.90;;;;;;5093598;28;20585;-61
2021/09/22 09:48:06;;;;;;;10.18;3.30;;;17.30;99.90;;;;;;5093991;28;20274;-61
2021/09/22 09:50:41;;;;;;;11.55;3.42;;;17.40;99.90;;;;;;5093673;28;20184;-61
2021/09/22 09:53:09;;;;;;;13.63;3.30;;;17.50;99.90;;;;;;5093870;28;20180;-61
2021/09/22 09:55:41;;;;;;;10.70;3.20;;;17.50;99.90;;;;;;5093851;28;20228;-63
2021/09/22 09:58:10;;;;;;;13.93;3.15;;;17.60;99.90;;;;;;5093907;28;20196;-60
2021/09/22 10:00:45;;;;;;;8.13;3.17;;;17.50;99.90;;;;;;5093734;28;20306;-61
2021/09/22 10:03:15;;;;;;;10.95;3.00;;;17.50;99.90;;;;;;5092486;28;20639;-62
2021/09/22 10:05:44;;;;;;;9.98;3.05;;;17.50;99.90;;;;;;5093288;28;20219;-61
2021/09/22 10:08:13;;;;;;;11.02;2.80;;;17.70;99.90;;;;;;5092392;28;20322;-61
2021/09/22 10:10:44;;;;;;;9.05;3.40;;;17.80;99.90;;;;;;5092569;28;20283;-62
2021/09/22 10:13:13;;;;;;;7.63;3.08;;;17.90;99.90;;;;;;5093263;28;20284;-61
2021/09/22 10:15:42;;;;;;;11.07;3.45;;;17.90;99.90;;;;;;5093826;28;20294;-61
2021/09/22 10:18:12;;;;;;;12.73;3.05;;;17.90;99.90;;;;;;5093384;28;20196;-61
2021/09/22 10:20:43;;;;;;;9.63;3.35;;;17.60;99.90;;;;;;5093101;28;20307;-61
2021/09/22 10:23:21;;;;;;;14.02;3.92;;;17.50;99.90;;;;;;5093415;28;20199;-61
2021/09/22 10:25:52;;;;;;;9.80;3.30;;;17.60;99.90;;;;;;5093249;28;20299;-62
2021/09/22 10:28:33;;;;;;;10.10;3.42;;;17.70;99.90;;;;;;5093233;28;20204;-62
2021/09/22 10:31:01;;;;;;;14.13;3.15;;;17.80;99.90;;;;;;5092987;28;20180;-61
2021/09/22 10:33:32;;;;;;;10.75;2.65;;;18.00;99.90;;;;;;5092987;28;20611;-60
2021/09/22 10:36:02;;;;;;;8.13;2.72;;;17.90;99.90;;;;;;5092670;28;20624;-62
2021/09/22 10:38:50;;;;;;;12.73;3.30;;;17.90;99.90;;;;;;5093373;28;20210;-61
2021/09/22 10:41:29;;;;;;;9.75;2.78;;;17.70;99.90;;;;;;5092949;28;20294;-61
2021/09/22 10:43:58;;;;;;;10.88;3.20;;;17.70;99.90;;;;;;5092729;28;20184;-61
2021/09/22 10:46:30;;;;;;;11.88;3.25;;;17.80;99.90;;;;;;5092319;28;20227;-60
2021/09/22 10:49:14;;;;;;;9.80;3.22;;;17.80;99.90;;;;;;5092579;28;20715;-62
2021/09/22 10:51:44;;;;;;;9.82;2.67;;;17.80;99.90;;;;;;5092630;28;20195;-61
2021/09/22 10:54:15;;;;;;;12.13;2.80;;;17.70;99.90;;;;;;5092800;28;20180;-61
2021/09/22 10:56:57;;;;;;;13.73;3.47;;;17.80;99.90;;;;;;5092854;28;20700;-61
2021/09/22 10:59:37;;;;;;;8.35;3.20;;;18.00;99.90;;;;;;5092901;28;20186;-62
2021/09/22 11:02:08;;;;;;;11.63;3.55;;;18.20;99.90;;;;;;5092148;28;20206;-62
2021/09/22 11:04:58;;;;;;;13.32;3.33;;;18.30;99.90;;;;;;5092553;28;20208;-62
2021/09/22 11:07:56;;;;;;;13.98;2.80;;;18.10;99.90;;;;;;5092175;28;20318;-61
2021/09/22 11:10:44;;;;;;;8.25;3.03;;;18.00;99.90;;;;;;5092759;28;20232;-61
2021/09/22 11:13:34;;;;;;;7.68;2.90;;;18.00;99.90;;;;;;5092625;28;20188;-61
2021/09/22 11:16:10;;;;;;;11.35;3.03;;;18.10;99.90;;;;;;5092380;28;20275;-61
2021/09/22 11:18:41;;;;;;;10.60;2.97;;;18.40;99.90;;;;;;5092343;28;20308;-62
2021/09/22 11:21:09;;;;;;;8.35;2.72;;;18.80;99.90;;;;;;5095098;28;20180;-62
2021/09/22 11:23:36;;;;;;;9.88;2.90;;;18.90;99.90;;;;;;5096447;28;20731;-61
2021/09/22 11:26:06;;;;;;;10.07;3.17;;;18.90;99.90;;;;;;5096277;28;20752;-60
2021/09/22 11:28:36;;;;;;;9.00;2.65;;;18.60;99.90;;;;;;5096417;28;20287;-62
2021/09/22 11:31:04;;;;;;;11.85;3.20;;;18.40;99.90;;;;;;5096385;28;20227;-61
2021/09/22 11:33:32;;;;;;;7.43;2.25;;;18.10;99.90;;;;;;5096518;28;20196;-61
2021/09/22 11:36:06;;;;;;;8.80;2.30;;;18.10;99.90;;;;;;5096297;28;20619;-61
2021/09/22 11:38:35;;;;;;;7.03;2.55;;;18.30;99.90;;;;;;5096386;28;20227;-62
2021/09/22 11:41:04;;;;;;;10.20;2.50;;;18.40;99.90;;;;;;5096416;28;20200;-62
2021/09/22 11:43:32;;;;;;;14.20;3.08;;;18.20;99.90;;;;;;5096406;28;20253;-63
2021/09/22 11:46:03;;;;;;;8.95;2.85;;;18.00;99.90;;;;;;5096072;28;20315;-62
2021/09/22 11:48:32;;;;;;;8.50;2.78;;;18.00;99.90;;;;;;5096387;28;20184;-61
2021/09/22 11:51:03;;;;;;;8.73;2.85;;;18.00;99.90;;;;;;5095910;28;20577;-62
2021/09/22 11:53:33;;;;;;;9.57;2.72;;;18.20;99.90;;;;;;5095732;28;20303;-61
2021/09/22 11:56:01;;;;;;;9.23;3.30;;;18.10;99.90;;;;;;5095551;28;20671;-62
2021/09/22 11:58:31;;;;;;;14.85;3.40;;;18.00;99.90;;;;;;5096310;28;20215;-61
2021/09/22 12:01:01;;;;;;;10.82;3.38;;;17.80;99.90;;;;;;5095726;28;20329;-61
2021/09/22 12:03:32;;;;;;;10.60;2.80;;;17.70;99.90;;;;;;5095956;28;20184;-61
2021/09/22 12:06:08;;;;;;;11.43;3.03;;;17.50;99.90;;;;;;5095359;28;20208;-62
2021/09/22 12:08:38;;;;;;;12.50;3.50;;;17.50;99.90;;;;;;5095507;28;20249;-60
2021/09/22 12:11:07;;;;;;;11.27;3.13;;;17.70;99.90;;;;;;5095968;28;20214;-61
2021/09/22 12:13:42;;;;;;;7.20;2.50;;;17.90;99.90;;;;;;5095755;28;20296;-61
2021/09/22 12:16:12;;;;;;;9.60;2.83;;;18.10;99.90;;;;;;5095476;28;20279;-62
2021/09/22 12:18:41;;;;;;;9.82;2.92;;;18.30;99.90;;;;;;5095607;28;20286;-61
2021/09/22 12:21:09;;;;;;;12.95;2.88;;;18.50;99.90;;;;;;5095155;28;20624;-62
2021/09/22 12:23:37;;;;;;;9.15;2.60;;;18.60;99.90;;;;;;5095551;28;20250;-61
2021/09/22 12:26:10;;;;;;;10.02;3.25;;;18.60;99.90;;;;;;5095308;28;20222;-62
2021/09/22 12:28:39;;;;;;;9.90;2.80;;;18.60;99.90;;;;;;5095403;28;20191;-61
2021/09/22 12:31:17;;;;;;;8.50;2.67;;;18.60;99.90;;;;;;5094936;28;20200;-61
2021/09/22 12:33:46;;;;;;;9.30;3.22;;;18.60;99.90;;;;;;5094400;28;20184;-61
2021/09/22 12:36:15;;;;;;;10.02;3.08;;;18.60;99.90;;;;;;5095075;28;20199;-62
2021/09/22 12:38:49;;;;;;;11.48;3.25;;;18.60;99.90;;;;;;5094894;28;20627;-62
2021/09/22 12:41:18;;;;;;;14.02;3.30;;;18.60;99.90;;;;;;5095214;28;20267;-61
2021/09/22 12:43:47;;;;;;;8.00;2.95;;;18.50;99.90;;;;;;5094924;28;20694;-61
2021/09/22 12:46:18;;;;;;;8.23;2.75;;;18.40;99.90;;;;;;5094896;28;20322;-61
2021/09/22 12:48:47;;;;;;;12.15;3.25;;;18.30;99.90;;;;;;5094927;28;20659;-61
2021/09/22 12:51:20;;;;;;;9.38;3.00;;;18.30;99.90;;;;;;5094968;28;20295;-63
2021/09/22 12:53:50;;;;;;;10.73;3.10;;;18.20;99.90;;;;;;5095080;28;20184;-61